createdAt,value
2019-03-30T00:01:21.490Z,7.50
2019-03-30T00:03:50.886Z,7.40
2019-03-30T00:06:19.745Z,7.40
2019-03-30T00:08:48.530Z,7.50
2019-03-30T00:11:17.313Z,7.40
2019-03-30T00:13:46.160Z,7.40
2019-03-30T00:16:15.004Z,7.40
2019-03-30T00:18:43.859Z,7.30
2019-03-30T00:21:12.616Z,7.40
2019-03-30T00:23:41.423Z,7.30
2019-03-30T00:26:10.226Z,7.30
2019-03-30T00:28:39.229Z,7.20
2019-03-30T00:31:07.980Z,7.20
2019-03-30T00:33:36.779Z,7.20
2019-03-30T00:36:05.575Z,7.20
2019-03-30T00:38:34.324Z,7.10
2019-03-30T00:41:03.088Z,7.20
2019-03-30T00:43:31.941Z,7.10
2019-03-30T00:46:00.696Z,7.10
2019-03-30T00:48:29.602Z,7.10
2019-03-30T00:50:58.393Z,7.10
2019-03-30T00:53:27.219Z,7.10
2019-03-30T00:55:56.021Z,7.10
2019-03-30T00:58:25.683Z,7.00
2019-03-30T01:00:55.457Z,7.00
2019-03-30T01:03:24.240Z,6.90
2019-03-30T01:05:53.031Z,6.90
2019-03-30T01:08:21.817Z,6.80
2019-03-30T01:10:50.590Z,6.70
2019-03-30T01:13:19.646Z,6.80
2019-03-30T01:15:48.637Z,6.70
2019-03-30T01:18:17.379Z,6.70
2019-03-30T01:20:46.196Z,6.70
2019-03-30T01:23:14.984Z,6.70
2019-03-30T01:25:43.773Z,6.70
2019-03-30T01:28:12.586Z,6.70
2019-03-30T01:30:41.493Z,6.70
2019-03-30T01:33:10.278Z,6.70
2019-03-30T01:35:39.203Z,6.70
2019-03-30T01:38:08.022Z,6.60
2019-03-30T01:40:36.786Z,6.60
2019-03-30T01:43:05.586Z,6.50
2019-03-30T01:45:34.334Z,6.50
2019-03-30T01:48:03.123Z,6.40
2019-03-30T01:50:32.000Z,6.50
2019-03-30T01:53:00.843Z,6.50
2019-03-30T01:55:29.642Z,6.50
2019-03-30T01:57:58.515Z,6.40
2019-03-30T02:00:27.286Z,6.40
2019-03-30T02:02:56.065Z,6.40
2019-03-30T02:05:24.861Z,6.40
2019-03-30T02:07:53.711Z,6.40
2019-03-30T02:10:39.639Z,6.40
2019-03-30T02:13:08.716Z,6.40
2019-03-30T02:15:37.554Z,6.30
2019-03-30T02:18:06.393Z,6.40
2019-03-30T02:20:40.229Z,6.30
2019-03-30T02:23:09.126Z,6.30
2019-03-30T02:25:38.189Z,6.20
2019-03-30T02:28:08.105Z,6.20
2019-03-30T02:30:37.331Z,6.20
2019-03-30T02:33:06.280Z,6.20
2019-03-30T02:35:35.128Z,6.20
2019-03-30T02:38:03.904Z,6.20
2019-03-30T02:40:32.740Z,6.10
2019-03-30T02:43:01.792Z,6.00
2019-03-30T02:45:30.613Z,6.00
2019-03-30T02:47:59.353Z,6.00
2019-03-30T02:50:28.104Z,6.00
2019-03-30T02:52:56.872Z,6.00
2019-03-30T02:55:25.691Z,6.00
2019-03-30T02:57:54.555Z,6.00
2019-03-30T03:00:23.302Z,5.90
2019-03-30T03:02:52.061Z,6.00
2019-03-30T03:05:20.840Z,5.90
2019-03-30T03:07:49.681Z,6.00
2019-03-30T03:10:18.939Z,5.90
2019-03-30T03:12:47.785Z,6.00
2019-03-30T03:15:16.544Z,6.00
2019-03-30T03:17:45.355Z,6.00
2019-03-30T03:20:14.243Z,5.90
2019-03-30T03:22:42.992Z,6.00
2019-03-30T03:25:11.990Z,5.90
2019-03-30T03:27:40.790Z,5.80
2019-03-30T03:30:10.386Z,5.90
2019-03-30T03:32:39.187Z,5.90
2019-03-30T03:35:08.131Z,5.90
2019-03-30T03:37:45.239Z,5.90
2019-03-30T03:40:08.246Z,5.80
2019-03-30T03:42:37.079Z,5.80
2019-03-30T03:45:07.602Z,5.70
2019-03-30T03:47:36.442Z,5.60
2019-03-30T03:50:07.550Z,5.70
2019-03-30T03:52:36.884Z,5.70
2019-03-30T03:55:05.822Z,5.70
2019-03-30T03:57:37.996Z,5.60
2019-03-30T04:00:08.046Z,5.60
2019-03-30T04:02:37.553Z,5.50
2019-03-30T04:05:08.191Z,5.40
2019-03-30T04:07:40.030Z,5.30
2019-03-30T04:10:09.154Z,5.30
2019-03-30T04:12:39.588Z,5.20
2019-03-30T04:15:09.021Z,5.20
2019-03-30T04:17:37.956Z,5.20
2019-03-30T04:20:07.371Z,5.30
2019-03-30T04:22:36.618Z,5.30
2019-03-30T04:25:07.089Z,5.30
2019-03-30T04:27:35.852Z,5.30
2019-03-30T04:30:06.790Z,5.30
2019-03-30T04:32:35.559Z,5.40
2019-03-30T04:35:05.729Z,5.40
2019-03-30T04:37:34.705Z,5.40
2019-03-30T04:40:04.797Z,5.40
2019-03-30T04:42:33.609Z,5.40
2019-03-30T04:45:02.393Z,5.30
2019-03-30T04:47:31.186Z,5.30
2019-03-30T04:50:00.005Z,5.30
2019-03-30T04:52:28.772Z,5.30
2019-03-30T04:54:57.610Z,5.30
2019-03-30T04:57:26.359Z,5.30
2019-03-30T04:59:55.154Z,5.20
2019-03-30T05:02:23.896Z,5.20
2019-03-30T05:04:52.637Z,5.30
2019-03-30T05:07:22.929Z,5.30
2019-03-30T05:09:51.693Z,5.20
2019-03-30T05:12:21.457Z,5.20
2019-03-30T05:14:50.362Z,5.30
2019-03-30T05:17:19.307Z,5.30
2019-03-30T05:19:48.105Z,5.40
2019-03-30T05:22:17.236Z,5.40
2019-03-30T05:24:46.068Z,5.50
2019-03-30T05:27:14.903Z,5.50
2019-03-30T05:29:43.995Z,5.60
2019-03-30T05:32:12.842Z,5.60
2019-03-30T05:34:41.587Z,5.70
2019-03-30T05:37:10.332Z,5.70
2019-03-30T05:39:39.376Z,5.80
2019-03-30T05:42:08.262Z,5.90
2019-03-30T05:44:37.038Z,6.00
2019-03-30T05:47:05.902Z,6.10
2019-03-30T05:49:34.712Z,6.10
2019-03-30T05:52:03.496Z,6.20
2019-03-30T05:54:32.488Z,6.30
2019-03-30T05:57:01.241Z,6.30
2019-03-30T05:59:30.032Z,6.30
2019-03-30T06:01:58.873Z,6.30
2019-03-30T06:04:27.608Z,6.50
2019-03-30T06:07:01.082Z,6.60
2019-03-30T06:09:30.069Z,6.80
2019-03-30T06:11:58.861Z,7.00
2019-03-30T06:14:27.638Z,7.20
2019-03-30T06:16:56.386Z,7.40
2019-03-30T06:19:25.163Z,7.80
2019-03-30T06:21:53.958Z,8.10
2019-03-30T06:24:22.849Z,8.50
2019-03-30T06:26:51.620Z,9.00
2019-03-30T06:29:20.362Z,9.10
2019-03-30T06:31:49.406Z,9.30
2019-03-30T06:34:18.181Z,9.50
2019-03-30T06:36:46.980Z,9.70
2019-03-30T06:39:15.785Z,9.80
2019-03-30T06:41:44.632Z,10.10
2019-03-30T06:44:13.469Z,10.10
2019-03-30T06:46:42.371Z,10.30
2019-03-30T06:49:11.183Z,10.40
2019-03-30T06:51:39.941Z,10.60
2019-03-30T06:54:08.730Z,10.50
2019-03-30T06:56:37.499Z,10.30
2019-03-30T06:59:06.553Z,10.50
2019-03-30T07:01:35.326Z,10.60
2019-03-30T07:04:04.133Z,11.10
2019-03-30T07:06:33.247Z,11.10
2019-03-30T07:09:04.356Z,11.30
2019-03-30T07:11:36.308Z,10.90
2019-03-30T07:14:05.226Z,11.10
2019-03-30T07:16:36.282Z,11.40
2019-03-30T07:19:05.874Z,11.50
2019-03-30T07:21:34.645Z,11.40
2019-03-30T07:24:03.535Z,11.20
2019-03-30T07:26:32.356Z,11.30
2019-03-30T07:29:01.118Z,11.30
2019-03-30T07:31:29.598Z,11.60
2019-03-30T07:33:58.111Z,12.30
2019-03-30T07:36:26.681Z,12.80
2019-03-30T07:38:55.513Z,12.60
2019-03-30T07:41:24.081Z,12.60
2019-03-30T07:43:52.642Z,12.90
2019-03-30T07:46:21.232Z,13.50
2019-03-30T07:48:49.785Z,14.10
2019-03-30T07:51:18.349Z,14.40
2019-03-30T07:53:46.809Z,14.70
2019-03-30T07:56:15.327Z,14.80
2019-03-30T07:58:43.840Z,15.20
2019-03-30T08:01:12.402Z,15.80
2019-03-30T08:03:40.877Z,16.20
2019-03-30T08:06:09.390Z,16.30
2019-03-30T08:08:37.949Z,16.50
2019-03-30T08:11:06.429Z,16.30
2019-03-30T08:13:34.910Z,16.50
2019-03-30T08:16:03.403Z,16.00
2019-03-30T08:18:32.041Z,16.20
2019-03-30T08:21:00.532Z,16.30
2019-03-30T08:23:39.846Z,16.20
2019-03-30T08:25:59.285Z,16.60
2019-03-30T08:28:27.847Z,16.60
2019-03-30T08:30:56.355Z,17.00
2019-03-30T08:33:24.829Z,16.80
2019-03-30T08:35:53.317Z,16.60
2019-03-30T08:38:21.847Z,17.20
2019-03-30T08:40:50.360Z,17.10
2019-03-30T08:43:18.835Z,17.40
2019-03-30T08:45:48.907Z,17.90
2019-03-30T08:48:17.607Z,17.70
2019-03-30T08:50:46.192Z,17.90
2019-03-30T08:53:14.689Z,18.40
2019-03-30T08:55:43.193Z,18.60
2019-03-30T08:58:11.701Z,19.00
2019-03-30T09:00:42.329Z,19.00
2019-03-30T09:03:11.030Z,19.20
2019-03-30T09:05:40.010Z,19.30
2019-03-30T09:08:08.549Z,19.60
2019-03-30T09:10:37.090Z,19.10
2019-03-30T09:13:05.593Z,19.00
2019-03-30T09:15:34.048Z,18.40
2019-03-30T09:18:02.574Z,17.60
2019-03-30T09:20:31.071Z,17.90
2019-03-30T09:22:59.603Z,17.60
2019-03-30T09:25:28.223Z,18.00
2019-03-30T09:27:56.860Z,17.90
2019-03-30T09:30:25.338Z,18.00
2019-03-30T09:32:54.296Z,18.50
2019-03-30T09:35:22.982Z,18.40
2019-03-30T09:37:51.635Z,19.30
2019-03-30T09:40:20.192Z,19.00
2019-03-30T09:42:48.705Z,19.10
2019-03-30T09:45:17.232Z,19.10
2019-03-30T09:47:45.731Z,19.70
2019-03-30T09:50:14.381Z,20.20
2019-03-30T09:52:42.972Z,20.60
2019-03-30T09:55:11.480Z,20.40
2019-03-30T09:57:39.958Z,20.40
2019-03-30T10:00:08.818Z,20.30
2019-03-30T10:02:37.325Z,19.70
2019-03-30T10:05:06.264Z,19.50
2019-03-30T10:07:34.823Z,19.40
2019-03-30T10:10:03.774Z,19.00
2019-03-30T10:12:32.310Z,18.90
2019-03-30T10:15:00.838Z,19.50
2019-03-30T10:17:29.602Z,20.40
2019-03-30T10:20:04.587Z,20.20
2019-03-30T10:22:28.600Z,21.00
2019-03-30T10:24:58.573Z,21.80
2019-03-30T10:27:27.376Z,21.60
2019-03-30T10:29:57.637Z,21.80
2019-03-30T10:32:26.142Z,21.90
2019-03-30T10:34:54.643Z,21.60
2019-03-30T10:37:23.096Z,21.50
2019-03-30T10:39:51.606Z,20.90
2019-03-30T10:42:20.084Z,20.90
2019-03-30T10:44:48.614Z,21.00
2019-03-30T10:47:17.145Z,21.30
2019-03-30T10:49:45.671Z,22.40
2019-03-30T10:52:14.252Z,23.10
2019-03-30T10:54:52.590Z,23.60
2019-03-30T10:57:13.049Z,24.00
2019-03-30T10:59:41.553Z,23.70
2019-03-30T11:02:10.060Z,23.60
2019-03-30T11:04:38.550Z,23.00
2019-03-30T11:07:07.037Z,22.60
2019-03-30T11:09:35.538Z,22.90
2019-03-30T11:12:04.040Z,23.60
2019-03-30T11:14:32.573Z,23.70
2019-03-30T11:17:01.129Z,23.40
2019-03-30T11:19:29.676Z,23.40
2019-03-30T11:21:58.173Z,23.10
2019-03-30T11:24:28.408Z,23.00
2019-03-30T11:26:56.889Z,23.20
2019-03-30T11:29:25.356Z,23.50
2019-03-30T11:31:53.824Z,24.90
2019-03-30T11:34:22.297Z,24.90
2019-03-30T11:36:50.875Z,25.20
2019-03-30T11:39:19.336Z,24.80
2019-03-30T11:41:47.841Z,24.30
2019-03-30T11:44:16.342Z,24.10
2019-03-30T11:46:44.892Z,24.00
2019-03-30T11:49:13.654Z,24.10
2019-03-30T11:51:42.122Z,24.40
2019-03-30T11:54:10.749Z,24.70
2019-03-30T11:56:39.253Z,24.90
2019-03-30T11:59:07.757Z,25.00
2019-03-30T12:01:36.302Z,24.50
2019-03-30T12:04:04.775Z,25.30
2019-03-30T12:06:33.298Z,25.60
2019-03-30T12:09:01.862Z,25.90
2019-03-30T12:11:30.325Z,25.60
2019-03-30T12:13:59.045Z,25.60
2019-03-30T12:16:27.623Z,26.40
2019-03-30T12:18:56.218Z,27.00
2019-03-30T12:21:24.798Z,26.90
2019-03-30T12:23:53.553Z,27.10
2019-03-30T12:26:22.055Z,26.50
2019-03-30T12:28:50.614Z,26.30
2019-03-30T12:31:21.757Z,26.40
2019-03-30T12:33:50.240Z,26.30
2019-03-30T12:36:18.796Z,25.90
2019-03-30T12:38:47.309Z,26.30
2019-03-30T12:41:15.809Z,26.40
2019-03-30T12:43:44.297Z,26.40
2019-03-30T12:46:12.806Z,26.80
2019-03-30T12:48:41.270Z,26.80
2019-03-30T12:51:09.781Z,26.40
2019-03-30T12:53:49.478Z,25.90
2019-03-30T12:56:09.184Z,25.70
2019-03-30T12:58:37.703Z,25.90
2019-03-30T13:01:06.161Z,26.30
2019-03-30T13:03:34.669Z,26.70
2019-03-30T13:06:03.196Z,26.10
2019-03-30T13:08:32.003Z,25.00
2019-03-30T13:11:00.566Z,25.60
2019-03-30T13:13:29.086Z,26.30
2019-03-30T13:15:57.585Z,26.20
2019-03-30T13:18:26.083Z,26.30
2019-03-30T13:20:54.563Z,26.10
2019-03-30T13:23:23.025Z,27.10
2019-03-30T13:26:02.811Z,27.90
2019-03-30T13:28:21.718Z,26.80
2019-03-30T13:30:50.273Z,26.20
2019-03-30T13:33:18.779Z,25.40
2019-03-30T13:35:47.361Z,24.80
2019-03-30T13:38:15.823Z,24.70
2019-03-30T13:40:44.277Z,25.90
2019-03-30T13:43:12.740Z,26.40
2019-03-30T13:45:41.228Z,26.00
2019-03-30T13:48:09.785Z,25.20
2019-03-30T13:50:38.529Z,25.90
2019-03-30T13:53:07.025Z,26.00
2019-03-30T13:55:35.488Z,26.10
2019-03-30T13:58:04.096Z,25.90
2019-03-30T14:00:32.862Z,26.70
2019-03-30T14:03:01.417Z,26.60
2019-03-30T14:05:29.952Z,26.20
2019-03-30T14:07:59.215Z,26.20
2019-03-30T14:10:27.718Z,26.40
2019-03-30T14:12:56.213Z,25.90
2019-03-30T14:15:24.710Z,25.40
2019-03-30T14:17:53.257Z,24.90
2019-03-30T14:20:21.716Z,24.50
2019-03-30T14:22:50.182Z,24.20
2019-03-30T14:25:20.226Z,24.40
2019-03-30T14:27:48.962Z,24.50
2019-03-30T14:30:17.805Z,24.10
2019-03-30T14:32:46.281Z,23.40
2019-03-30T14:35:15.009Z,23.90
2019-03-30T14:37:43.512Z,24.00
2019-03-30T14:40:12.169Z,24.30
2019-03-30T14:42:40.657Z,24.60
2019-03-30T14:45:09.348Z,24.60
2019-03-30T14:47:37.828Z,24.90
2019-03-30T14:50:08.561Z,24.30
2019-03-30T14:52:37.307Z,24.30
2019-03-30T14:55:08.903Z,24.00
2019-03-30T14:57:37.383Z,24.10
2019-03-30T15:00:09.001Z,23.80
2019-03-30T15:02:37.493Z,23.90
2019-03-30T15:05:09.150Z,23.90
2019-03-30T15:07:37.698Z,23.90
2019-03-30T15:10:09.152Z,24.10
2019-03-30T15:12:38.326Z,24.00
2019-03-30T15:15:10.765Z,24.10
2019-03-30T15:17:40.812Z,23.90
2019-03-30T15:20:10.656Z,24.20
2019-03-30T15:22:39.248Z,24.80
2019-03-30T15:25:10.042Z,24.40
2019-03-30T15:27:38.594Z,24.40
2019-03-30T15:30:10.425Z,24.20
2019-03-30T15:32:38.896Z,24.00
2019-03-30T15:35:07.705Z,24.00
2019-03-30T15:37:36.192Z,23.90
2019-03-30T15:40:06.495Z,23.90
2019-03-30T15:42:34.965Z,24.20
2019-03-30T15:45:04.482Z,24.10
2019-03-30T15:47:32.969Z,23.80
2019-03-30T15:50:01.465Z,23.80
2019-03-30T15:52:29.927Z,23.60
2019-03-30T15:54:58.423Z,23.30
2019-03-30T15:57:26.995Z,23.10
2019-03-30T15:59:55.579Z,22.60
2019-03-30T16:02:24.061Z,22.00
2019-03-30T16:04:52.557Z,21.40
2019-03-30T16:07:21.056Z,20.90
2019-03-30T16:09:49.554Z,20.50
2019-03-30T16:12:18.092Z,20.10
2019-03-30T16:14:46.645Z,19.90
2019-03-30T16:17:15.157Z,19.70
2019-03-30T16:19:43.710Z,19.40
2019-03-30T16:22:12.270Z,19.20
2019-03-30T16:24:40.829Z,19.10
2019-03-30T16:27:09.331Z,19.10
2019-03-30T16:29:37.804Z,18.90
2019-03-30T16:32:06.305Z,18.90
2019-03-30T16:34:34.854Z,18.80
2019-03-30T16:37:03.354Z,18.70
2019-03-30T16:39:34.637Z,18.50
2019-03-30T16:42:02.140Z,18.40
2019-03-30T16:44:30.621Z,18.40
2019-03-30T16:46:59.122Z,18.50
2019-03-30T16:49:27.636Z,18.40
2019-03-30T16:51:56.199Z,18.20
2019-03-30T16:54:24.763Z,18.10
2019-03-30T16:56:53.258Z,18.10
2019-03-30T16:59:21.813Z,18.30
2019-03-30T17:01:50.366Z,18.10
2019-03-30T17:04:18.873Z,17.90
2019-03-30T17:06:47.669Z,17.90
2019-03-30T17:09:16.144Z,17.80
2019-03-30T17:11:44.654Z,17.80
2019-03-30T17:14:13.437Z,17.70
2019-03-30T17:16:44.950Z,17.60
2019-03-30T17:19:13.734Z,18.00
2019-03-30T17:21:42.212Z,17.90
2019-03-30T17:24:10.679Z,17.70
2019-03-30T17:26:39.178Z,17.50
2019-03-30T17:29:09.217Z,17.30
2019-03-30T17:31:37.793Z,17.20
2019-03-30T17:34:06.391Z,17.10
2019-03-30T17:36:34.884Z,17.00
2019-03-30T17:39:04.915Z,16.90
2019-03-30T17:41:33.419Z,16.80
2019-03-30T17:44:01.936Z,16.80
2019-03-30T17:46:30.546Z,16.70
2019-03-30T17:48:59.062Z,16.80
2019-03-30T17:51:27.629Z,16.70
2019-03-30T17:53:57.800Z,16.50
2019-03-30T17:56:26.288Z,16.60
2019-03-30T17:58:54.874Z,17.10
2019-03-30T18:01:23.342Z,16.90
2019-03-30T18:03:51.851Z,16.80
2019-03-30T18:06:20.395Z,16.60
2019-03-30T18:08:48.852Z,16.40
2019-03-30T18:11:17.361Z,16.40
2019-03-30T18:13:45.902Z,16.30
2019-03-30T18:16:14.422Z,16.20
2019-03-30T18:18:42.983Z,16.10
2019-03-30T18:21:11.497Z,16.10
2019-03-30T18:23:39.978Z,16.10
2019-03-30T18:26:08.479Z,16.10
2019-03-30T18:28:37.008Z,16.10
2019-03-30T18:31:05.485Z,15.90
2019-03-30T18:33:34.758Z,15.80
2019-03-30T18:36:04.090Z,15.80
2019-03-30T18:38:36.762Z,15.80
2019-03-30T18:41:05.348Z,15.70
2019-03-30T18:43:33.878Z,15.60
2019-03-30T18:46:02.356Z,15.50
2019-03-30T18:48:30.887Z,15.40
2019-03-30T18:51:00.417Z,15.40
2019-03-30T18:53:29.092Z,15.30
2019-03-30T18:55:57.557Z,15.20
2019-03-30T18:58:26.058Z,15.10
2019-03-30T19:00:54.532Z,15.10
2019-03-30T19:03:23.043Z,15.00
2019-03-30T19:05:51.498Z,15.00
2019-03-30T19:08:20.000Z,15.00
2019-03-30T19:10:48.561Z,15.00
2019-03-30T19:13:17.116Z,14.90
2019-03-30T19:15:45.687Z,14.90
2019-03-30T19:18:17.254Z,14.80
2019-03-30T19:20:45.779Z,14.80
2019-03-30T19:23:14.330Z,14.70
2019-03-30T19:25:43.123Z,14.60
2019-03-30T19:28:12.018Z,14.60
2019-03-30T19:30:42.440Z,14.60
2019-03-30T19:33:11.009Z,14.60
2019-03-30T19:35:39.763Z,14.60
2019-03-30T19:38:10.836Z,14.60
2019-03-30T19:40:38.746Z,14.50
2019-03-30T19:43:07.223Z,14.40
2019-03-30T19:45:36.012Z,14.40
2019-03-30T19:48:04.520Z,14.30
2019-03-30T19:50:33.248Z,14.20
2019-03-30T19:53:01.723Z,14.20
2019-03-30T19:55:30.758Z,14.20
2019-03-30T19:57:59.590Z,14.10
2019-03-30T20:00:28.417Z,14.10
2019-03-30T20:02:57.164Z,14.10
2019-03-30T20:05:25.690Z,14.10
2019-03-30T20:07:54.430Z,14.10
2019-03-30T20:10:23.343Z,14.00
2019-03-30T20:12:52.109Z,14.10
2019-03-30T20:15:20.865Z,14.00
2019-03-30T20:17:49.651Z,14.00
2019-03-30T20:20:18.385Z,14.00
2019-03-30T20:22:47.128Z,13.80
2019-03-30T20:25:15.883Z,13.80
2019-03-30T20:27:44.642Z,13.80
2019-03-30T20:30:14.143Z,13.70
2019-03-30T20:32:43.229Z,13.60
2019-03-30T20:35:12.104Z,13.60
2019-03-30T20:37:40.857Z,13.60
2019-03-30T20:40:10.044Z,13.70
2019-03-30T20:42:38.826Z,13.60
2019-03-30T20:45:08.015Z,13.70
2019-03-30T20:47:36.874Z,13.70
2019-03-30T20:50:07.448Z,13.70
2019-03-30T20:52:36.233Z,13.60
2019-03-30T20:55:06.825Z,13.50
2019-03-30T20:57:35.601Z,13.50
2019-03-30T21:00:09.231Z,13.40
2019-03-30T21:02:38.021Z,13.40
2019-03-30T21:05:07.757Z,13.30
2019-03-30T21:07:36.522Z,13.30
2019-03-30T21:10:07.531Z,13.40
2019-03-30T21:12:36.310Z,13.40
2019-03-30T21:15:06.312Z,13.30
2019-03-30T21:17:35.199Z,13.30
2019-03-30T21:20:05.488Z,13.20
2019-03-30T21:22:34.358Z,13.20
2019-03-30T21:25:03.301Z,13.20
2019-03-30T21:27:32.088Z,13.20
2019-03-30T21:30:03.517Z,13.20
2019-03-30T21:32:32.317Z,13.20
2019-03-30T21:35:01.093Z,13.20
2019-03-30T21:37:30.158Z,13.10
2019-03-30T21:39:58.944Z,13.10
2019-03-30T21:42:27.802Z,13.10
2019-03-30T21:44:56.709Z,13.10
2019-03-30T21:47:25.607Z,13.10
2019-03-30T21:49:54.391Z,13.00
2019-03-30T21:52:23.313Z,13.00
2019-03-30T21:54:52.173Z,12.90
2019-03-30T21:57:21.208Z,12.90
2019-03-30T21:59:50.077Z,12.80
2019-03-30T22:02:18.911Z,12.70
2019-03-30T22:04:47.754Z,12.70
2019-03-30T22:07:16.792Z,12.60
2019-03-30T22:09:45.620Z,12.60
2019-03-30T22:12:14.409Z,12.60
2019-03-30T22:14:43.200Z,12.60
2019-03-30T22:17:12.011Z,12.60
2019-03-30T22:19:40.835Z,12.60
2019-03-30T22:22:09.605Z,12.60
2019-03-30T22:24:38.386Z,12.60
2019-03-30T22:27:07.139Z,12.60
2019-03-30T22:29:35.902Z,12.60
2019-03-30T22:32:04.792Z,12.50
2019-03-30T22:34:33.562Z,12.50
2019-03-30T22:37:02.356Z,12.40
2019-03-30T22:39:31.151Z,12.40
2019-03-30T22:41:59.997Z,12.40
2019-03-30T22:44:28.815Z,12.30
2019-03-30T22:47:05.734Z,12.30
2019-03-30T22:49:34.554Z,12.30
2019-03-30T22:52:03.317Z,12.10
2019-03-30T22:54:32.071Z,12.10
2019-03-30T22:57:00.861Z,12.10
2019-03-30T22:59:29.703Z,12.00
2019-03-30T23:01:58.606Z,12.00
2019-03-30T23:04:27.366Z,12.00
2019-03-30T23:06:56.179Z,11.90
2019-03-30T23:09:25.013Z,11.90
2019-03-30T23:11:53.861Z,11.90
2019-03-30T23:14:22.806Z,11.80
2019-03-30T23:16:51.609Z,11.70
2019-03-30T23:19:20.401Z,11.70
2019-03-30T23:21:49.152Z,11.70
2019-03-30T23:24:17.983Z,11.70
2019-03-30T23:26:46.752Z,11.70
2019-03-30T23:29:15.500Z,11.60
2019-03-30T23:31:44.281Z,11.60
2019-03-30T23:34:13.118Z,11.60
2019-03-30T23:36:41.958Z,11.60
2019-03-30T23:39:11.015Z,11.60
2019-03-30T23:41:39.789Z,11.50
2019-03-30T23:44:08.632Z,11.40
2019-03-30T23:46:38.489Z,11.40
2019-03-30T23:49:07.271Z,11.30
2019-03-30T23:51:36.149Z,11.20
2019-03-30T23:54:05.069Z,11.20
2019-03-30T23:56:33.848Z,11.20
2019-03-30T23:59:02.641Z,11.10
